Time;durP1;ratioP1;P1;durP2;ratioP2;P2;SDS_P1;SDS_P2;PMS_P1;PMS_P2;Temp;Humidity;BMP_temperature;BMP_pressure;BME280_temperature;BME280_humidity;BME280_pressure;Samples;Min_cycle;Max_cycle;Signal;HPM_P1;HPM_P2
2023/05/12 00:01:26;;;;;;;;;;;;;;;9.77;100.00;95530.75;5087914;28;19924;-75
2023/05/12 00:03:52;;;;;;;;;;;;;;;9.76;100.00;95528.25;5086059;28;20018;-75
2023/05/12 00:06:18;;;;;;;;;;;;;;;9.73;100.00;95528.44;5079027;28;19933;-77
2023/05/12 00:08:44;;;;;;;;;;;;;;;9.71;100.00;95523.34;5084874;28;19938;-76
2023/05/12 00:11:12;;;;;;;;;;;;;;;9.63;100.00;95530.78;5088360;28;19977;-75
2023/05/12 00:13:38;;;;;;;;;;;;;;;9.61;100.00;95524.88;5086685;28;19932;-78
2023/05/12 00:16:05;;;;;;;;;;;;;;;9.74;100.00;95517.16;5088687;28;19931;-75
2023/05/12 00:18:31;;;;;;;;;;;;;;;9.86;100.00;95511.19;5084203;28;19970;-76
2023/05/12 00:20:58;;;;;;;;;;;;;;;9.90;100.00;95523.00;5087947;28;20023;-77
2023/05/12 00:23:24;;;;;;;;;;;;;;;9.94;100.00;95524.50;5086188;28;19924;-78
2023/05/12 00:25:50;;;;;;;;;;;;;;;9.96;100.00;95522.63;5088874;28;19932;-77
2023/05/12 00:28:18;;;;;;;;;;;;;;;9.98;100.00;95525.13;5077730;28;19979;-75
2023/05/12 00:30:44;;;;;;;;;;;;;;;10.02;100.00;95527.41;5083363;28;19924;-76
2023/05/12 00:33:10;;;;;;;;;;;;;;;10.06;100.00;95522.88;5083003;28;19977;-75
2023/05/12 00:35:37;;;;;;;;;;;;;;;10.08;100.00;95523.59;5083117;28;20456;-75
2023/05/12 00:38:03;;;;;;;;;;;;;;;10.16;100.00;95523.94;5079832;28;19928;-75
2023/05/12 00:40:29;;;;;;;;;;;;;;;10.16;100.00;95527.38;5079035;28;19932;-75
2023/05/12 00:42:56;;;;;;;;;;;;;;;10.14;100.00;95525.78;5082810;28;19924;-76
2023/05/12 00:45:23;;;;;;;;;;;;;;;10.13;100.00;95526.72;5086103;28;19924;-76
2023/05/12 00:47:51;;;;;;;;;;;;;;;10.11;100.00;95521.63;5077842;28;20310;-75
2023/05/12 00:50:17;;;;;;;;;;;;;;;10.12;100.00;95520.72;5083776;28;20466;-75
2023/05/12 00:52:44;;;;;;;;;;;;;;;10.21;100.00;95516.69;5080228;28;19928;-75
2023/05/12 00:55:10;;;;;;;;;;;;;;;10.16;100.00;95518.78;5093364;28;19924;-76
2023/05/12 00:57:36;;;;;;;;;;;;;;;10.03;100.00;95510.13;5078943;28;19931;-75
2023/05/12 01:00:03;;;;;;;;;;;;;;;10.03;100.00;95510.97;5086790;28;19977;-75
2023/05/12 01:02:31;;;;;;;;;;;;;;;10.03;100.00;95518.72;5087979;28;20023;-75
2023/05/12 01:04:57;;;;;;;;;;;;;;;9.94;100.00;95520.16;5089333;28;19932;-75
2023/05/12 01:07:25;;;;;;;;;;;;;;;9.98;100.00;95510.44;5080009;28;19970;-75
2023/05/12 01:09:53;;;;;;;;;;;;;;;10.02;100.00;95516.25;5092584;28;20336;-75
2023/05/12 01:12:20;;;;;;;;;;;;;;;9.97;100.00;95516.53;5087350;28;19932;-76
2023/05/12 01:14:46;;;;;;;;;;;;;;;9.92;100.00;95514.25;5085912;28;20015;-75
2023/05/12 01:17:14;;;;;;;;;;;;;;;9.96;100.00;95519.22;5088878;28;19935;-76
2023/05/12 01:19:46;;;;;;;;;;;;;;;9.96;100.00;95517.44;5084924;28;19924;-75
2023/05/12 01:22:12;;;;;;;;;;;;;;;9.97;100.00;95519.09;5088082;28;19924;-75
2023/05/12 01:24:45;;;;;;;;;;;;;;;10.01;100.00;95518.00;5090282;28;19971;-75
2023/05/12 01:27:14;;;;;;;;;;;;;;;10.01;100.00;95512.84;5088411;28;20015;-75
2023/05/12 01:29:40;;;;;;;;;;;;;;;10.06;100.00;95512.53;5090140;28;20390;-75
2023/05/12 01:32:07;;;;;;;;;;;;;;;10.11;100.00;95516.47;5083516;28;19931;-75
2023/05/12 01:34:33;;;;;;;;;;;;;;;10.11;100.00;95510.47;5089522;28;19924;-75
2023/05/12 01:37:00;;;;;;;;;;;;;;;10.05;100.00;95510.84;5088972;28;19927;-75
2023/05/12 01:39:26;;;;;;;;;;;;;;;10.05;100.00;95503.09;5088367;28;19962;-75
2023/05/12 01:41:52;;;;;;;;;;;;;;;10.03;100.00;95505.78;5082023;28;20377;-75
2023/05/12 01:44:20;;;;;;;;;;;;;;;10.03;100.00;95499.78;5083869;28;19938;-75
2023/05/12 01:46:48;;;;;;;;;;;;;;;9.98;100.00;95496.69;5084512;28;19959;-75
2023/05/12 01:49:14;;;;;;;;;;;;;;;9.83;100.00;95499.31;5078345;28;19954;-76
2023/05/12 01:51:40;;;;;;;;;;;;;;;9.71;100.00;95497.50;5092009;28;19931;-75
2023/05/12 01:54:07;;;;;;;;;;;;;;;9.72;100.00;95495.75;5088914;28;19982;-75
2023/05/12 01:56:33;;;;;;;;;;;;;;;9.73;100.00;95511.16;5088660;28;19928;-75
2023/05/12 01:58:59;;;;;;;;;;;;;;;9.57;100.00;95506.16;5081703;28;19932;-75
2023/05/12 02:01:27;;;;;;;;;;;;;;;9.59;100.00;95503.44;5089985;28;19974;-75
2023/05/12 02:03:54;;;;;;;;;;;;;;;9.59;100.00;95506.03;5081924;28;20341;-75
2023/05/12 02:06:20;;;;;;;;;;;;;;;9.58;100.00;95506.97;5090176;28;20321;-75
2023/05/12 02:08:46;;;;;;;;;;;;;;;9.67;100.00;95503.78;5088934;28;19932;-75
2023/05/12 02:11:12;;;;;;;;;;;;;;;9.62;100.00;95498.09;5089376;28;20003;-75
2023/05/12 02:13:39;;;;;;;;;;;;;;;9.61;100.00;95499.84;5087918;28;19924;-75
2023/05/12 02:16:06;;;;;;;;;;;;;;;9.56;100.00;95498.47;5089664;28;20401;-75
2023/05/12 02:18:34;;;;;;;;;;;;;;;9.59;100.00;95498.28;5087030;28;20433;-75
2023/05/12 02:21:00;;;;;;;;;;;;;;;9.71;100.00;95502.66;5088573;28;19935;-75
2023/05/12 02:23:26;;;;;;;;;;;;;;;9.73;100.00;95500.81;5085188;28;19924;-75
2023/05/12 02:25:52;;;;;;;;;;;;;;;9.79;100.00;95500.44;5088651;28;19932;-75
2023/05/12 02:28:19;;;;;;;;;;;;;;;9.68;100.00;95503.72;5087161;28;19947;-75
2023/05/12 02:30:47;;;;;;;;;;;;;;;9.72;100.00;95509.53;5080356;28;20359;-75
2023/05/12 02:33:13;;;;;;;;;;;;;;;9.53;100.00;95503.81;5086563;28;20003;-75
2023/05/12 02:35:41;;;;;;;;;;;;;;;9.64;100.00;95504.84;5087418;28;20338;-74
2023/05/12 02:38:07;;;;;;;;;;;;;;;9.55;100.00;95502.81;5086490;28;19935;-75
2023/05/12 02:40:33;;;;;;;;;;;;;;;9.65;100.00;95497.91;5086548;28;19978;-75
2023/05/12 02:43:00;;;;;;;;;;;;;;;9.77;100.00;95506.63;5085366;28;19928;-75
2023/05/12 02:45:26;;;;;;;;;;;;;;;9.83;100.00;95506.25;5081520;28;19929;-75
2023/05/12 02:47:52;;;;;;;;;;;;;;;9.85;100.00;95506.97;5079988;28;20354;-75
2023/05/12 02:50:19;;;;;;;;;;;;;;;9.88;100.00;95505.00;5065473;28;19932;-75
2023/05/12 02:52:46;;;;;;;;;;;;;;;9.93;100.00;95502.94;5085375;28;19933;-75
2023/05/12 02:55:13;;;;;;;;;;;;;;;9.99;100.00;95503.50;5092393;28;19928;-75
2023/05/12 02:57:39;;;;;;;;;;;;;;;10.03;100.00;95504.97;5086072;28;20272;-75
2023/05/12 03:00:06;;;;;;;;;;;;;;;10.09;100.00;95499.41;5082053;28;20360;-75
2023/05/12 03:02:32;;;;;;;;;;;;;;;10.10;100.00;95493.28;5083670;28;19924;-75
2023/05/12 03:04:58;;;;;;;;;;;;;;;10.06;100.00;95499.59;5092089;28;19924;-76
2023/05/12 03:07:25;;;;;;;;;;;;;;;10.03;100.00;95499.78;5075669;28;19978;-76
2023/05/12 03:09:54;;;;;;;;;;;;;;;10.02;100.00;95503.31;5087510;28;21550;-76
2023/05/12 03:12:20;;;;;;;;;;;;;;;10.03;100.00;95500.59;5084408;28;19936;-76
2023/05/12 03:14:47;;;;;;;;;;;;;;;10.04;100.00;95499.69;5088794;28;19928;-77
2023/05/12 03:17:13;;;;;;;;;;;;;;;10.17;100.00;95503.13;5085043;28;20007;-77
2023/05/12 03:19:39;;;;;;;;;;;;;;;10.10;100.00;95499.28;5081356;28;20313;-77
2023/05/12 03:22:07;;;;;;;;;;;;;;;10.13;100.00;95506.84;5078410;28;19928;-77
2023/05/12 03:24:33;;;;;;;;;;;;;;;9.98;100.00;95504.44;5080402;28;20389;-77
2023/05/12 03:27:01;;;;;;;;;;;;;;;9.91;100.00;95504.81;5086664;28;19931;-76
2023/05/12 03:29:27;;;;;;;;;;;;;;;9.88;100.00;95504.19;5079654;28;19955;-77
2023/05/12 03:31:53;;;;;;;;;;;;;;;9.88;100.00;95497.25;5086693;28;19924;-77
2023/05/12 03:34:20;;;;;;;;;;;;;;;9.89;100.00;95503.25;5082566;28;20016;-76
2023/05/12 03:36:46;;;;;;;;;;;;;;;9.93;100.00;95504.72;5085437;28;19974;-76
2023/05/12 03:39:12;;;;;;;;;;;;;;;10.00;100.00;95503.38;5083732;28;19955;-77
2023/05/12 03:41:38;;;;;;;;;;;;;;;10.01;100.00;95506.81;5085953;28;19981;-76
2023/05/12 03:44:07;;;;;;;;;;;;;;;9.95;100.00;95497.69;5083062;28;19929;-76
2023/05/12 03:46:33;;;;;;;;;;;;;;;9.94;100.00;95496.88;5075902;28;19928;-76
2023/05/12 03:48:59;;;;;;;;;;;;;;;9.94;100.00;95496.88;5082972;28;19924;-77
2023/05/12 03:51:26;;;;;;;;;;;;;;;9.96;100.00;95499.34;5085059;28;19923;-76
2023/05/12 03:53:53;;;;;;;;;;;;;;;9.86;100.00;95495.69;5087467;28;19928;-77
2023/05/12 03:56:19;;;;;;;;;;;;;;;9.88;100.00;95493.84;5089580;28;19927;-77
2023/05/12 03:58:46;;;;;;;;;;;;;;;9.87;100.00;95495.59;5085071;28;19928;-76
2023/05/12 04:01:13;;;;;;;;;;;;;;;9.93;100.00;95491.78;5087722;28;19970;-77
2023/05/12 04:03:40;;;;;;;;;;;;;;;9.92;100.00;95496.13;5086440;28;20382;-76
2023/05/12 04:06:07;;;;;;;;;;;;;;;9.78;100.00;95493.59;5087847;28;20007;-76
2023/05/12 04:08:33;;;;;;;;;;;;;;;9.81;100.00;95488.22;5087020;28;19970;-77
2023/05/12 04:11:01;;;;;;;;;;;;;;;9.87;100.00;95494.78;5071405;28;19947;-76
2023/05/12 04:13:27;;;;;;;;;;;;;;;9.87;100.00;95487.84;5082325;28;20361;-77
2023/05/12 04:15:55;;;;;;;;;;;;;;;9.85;100.00;95488.84;5083241;28;19954;-77
2023/05/12 04:18:23;;;;;;;;;;;;;;;9.81;100.00;95493.41;5067611;28;19924;-76
2023/05/12 04:20:49;;;;;;;;;;;;;;;9.86;100.00;95490.50;5085153;28;19928;-77
2023/05/12 04:23:15;;;;;;;;;;;;;;;9.93;100.00;95495.19;5084799;28;19924;-77
2023/05/12 04:25:42;;;;;;;;;;;;;;;10.11;100.00;95493.16;5086169;28;19993;-76
2023/05/12 04:28:08;;;;;;;;;;;;;;;10.19;100.00;95495.25;5086373;28;19924;-76
2023/05/12 04:30:36;;;;;;;;;;;;;;;10.18;100.00;95506.53;5093596;28;20329;-76
2023/05/12 04:33:03;;;;;;;;;;;;;;;10.18;100.00;95501.38;5075477;28;19928;-77
2023/05/12 04:35:30;;;;;;;;;;;;;;;10.11;100.00;95510.47;5090424;28;20272;-76
2023/05/12 04:37:56;;;;;;;;;;;;;;;10.07;100.00;95511.59;5083750;28;19928;-76
2023/05/12 04:40:23;;;;;;;;;;;;;;;10.21;100.00;95505.53;5090367;28;19928;-76
2023/05/12 04:42:49;;;;;;;;;;;;;;;10.07;100.00;95509.00;5084457;28;19932;-76
2023/05/12 04:45:15;;;;;;;;;;;;;;;10.10;100.00;95511.41;5081928;28;19924;-76
2023/05/12 04:47:42;;;;;;;;;;;;;;;10.05;100.00;95513.44;5081902;28;19932;-77
2023/05/12 04:50:09;;;;;;;;;;;;;;;10.05;100.00;95516.03;5093788;28;19928;-77
2023/05/12 04:52:37;;;;;;;;;;;;;;;10.01;100.00;95518.00;5080079;28;19925;-76
2023/05/12 04:55:03;;;;;;;;;;;;;;;10.00;100.00;95518.91;5078296;28;19928;-76
2023/05/12 04:57:30;;;;;;;;;;;;;;;9.96;100.00;95516.63;5086949;28;20441;-77
2023/05/12 04:59:58;;;;;;;;;;;;;;;9.97;100.00;95518.28;5092642;28;19924;-75
2023/05/12 05:02:24;;;;;;;;;;;;;;;9.99;100.00;95524.19;5085716;28;19928;-75
2023/05/12 05:04:51;;;;;;;;;;;;;;;10.06;100.00;95522.88;5094425;28;19924;-74
2023/05/12 05:07:17;;;;;;;;;;;;;;;10.00;100.00;95526.69;5088857;28;20290;-75
2023/05/12 05:09:45;;;;;;;;;;;;;;;9.97;100.00;95526.88;5076854;28;19928;-76
2023/05/12 05:12:11;;;;;;;;;;;;;;;9.95;100.00;95526.16;5080217;28;19924;-75
2023/05/12 05:14:37;;;;;;;;;;;;;;;9.89;100.00;95518.78;5089873;28;19935;-76
2023/05/12 05:17:05;;;;;;;;;;;;;;;9.96;100.00;95526.97;5089509;28;19924;-75
2023/05/12 05:19:32;;;;;;;;;;;;;;;9.94;100.00;95521.91;5089306;28;19971;-75
2023/05/12 05:21:58;;;;;;;;;;;;;;;9.89;100.00;95516.19;5091283;28;19994;-75
2023/05/12 05:24:24;;;;;;;;;;;;;;;9.99;100.00;95516.44;5092818;28;19977;-75
2023/05/12 05:26:52;;;;;;;;;;;;;;;10.05;100.00;95522.06;5088596;28;19977;-75
2023/05/12 05:29:18;;;;;;;;;;;;;;;10.12;100.00;95519.88;5086093;28;20390;-75
2023/05/12 05:31:44;;;;;;;;;;;;;;;10.20;100.00;95530.59;5089370;28;19928;-75
2023/05/12 05:34:11;;;;;;;;;;;;;;;10.22;100.00;95530.47;5094802;28;19969;-75
2023/05/12 05:36:37;;;;;;;;;;;;;;;10.24;100.00;95529.44;5080742;28;19924;-75
2023/05/12 05:39:03;;;;;;;;;;;;;;;10.31;100.00;95532.50;5072151;28;19928;-75
2023/05/12 05:41:30;;;;;;;;;;;;;;;10.35;100.00;95541.72;5086430;28;19986;-75
2023/05/12 05:43:57;;;;;;;;;;;;;;;10.33;100.00;95528.88;5089049;28;20621;-76
2023/05/12 05:46:23;;;;;;;;;;;;;;;10.33;100.00;95531.44;5086019;28;19924;-75
2023/05/12 05:48:50;;;;;;;;;;;;;;;10.34;100.00;95534.88;5077739;28;19924;-75
2023/05/12 05:51:16;;;;;;;;;;;;;;;10.31;100.00;95541.09;5092694;28;19977;-75
2023/05/12 05:53:43;;;;;;;;;;;;;;;10.48;100.00;95545.16;5089865;28;19936;-75
2023/05/12 05:56:09;;;;;;;;;;;;;;;10.45;100.00;95539.34;5091705;28;19970;-75
2023/05/12 05:58:36;;;;;;;;;;;;;;;10.44;100.00;95542.88;5088003;28;19924;-76
2023/05/12 06:01:04;;;;;;;;;;;;;;;10.64;100.00;95547.53;5084041;28;19935;-75
2023/05/12 06:03:30;;;;;;;;;;;;;;;10.40;100.00;95543.06;5088501;28;19931;-75
2023/05/12 06:05:57;;;;;;;;;;;;;;;10.38;100.00;95542.34;5083126;28;19932;-75
2023/05/12 06:08:23;;;;;;;;;;;;;;;10.42;100.00;95545.56;5084057;28;20417;-76
2023/05/12 06:10:49;;;;;;;;;;;;;;;10.38;100.00;95544.94;5090651;28;20329;-75
2023/05/12 06:13:15;;;;;;;;;;;;;;;10.27;100.00;95544.81;5088455;28;19930;-75
2023/05/12 06:15:42;;;;;;;;;;;;;;;10.16;100.00;95552.41;5088675;28;19967;-75
2023/05/12 06:18:10;;;;;;;;;;;;;;;10.21;100.00;95550.34;5087301;28;19931;-75
2023/05/12 06:20:36;;;;;;;;;;;;;;;10.30;100.00;95556.72;5088143;28;19932;-75
2023/05/12 06:23:02;;;;;;;;;;;;;;;10.37;100.00;95566.56;5087169;28;20869;-75
2023/05/12 06:25:28;;;;;;;;;;;;;;;10.41;100.00;95560.25;5089934;28;19931;-76
2023/05/12 06:27:55;;;;;;;;;;;;;;;10.41;100.00;95565.44;5085440;28;19932;-75
2023/05/12 06:30:21;;;;;;;;;;;;;;;10.44;100.00;95561.81;5082814;28;19970;-75
2023/05/12 06:32:47;;;;;;;;;;;;;;;10.44;100.00;95559.22;5089862;28;19928;-75
2023/05/12 06:35:15;;;;;;;;;;;;;;;10.47;100.00;95563.38;5090706;28;20512;-75
2023/05/12 06:37:43;;;;;;;;;;;;;;;10.57;100.00;95560.09;5082365;28;20272;-75
2023/05/12 06:40:10;;;;;;;;;;;;;;;10.67;100.00;95560.28;5083982;28;19928;-75
2023/05/12 06:42:36;;;;;;;;;;;;;;;10.44;100.00;95561.81;5067451;28;20310;-75
2023/05/12 06:45:02;;;;;;;;;;;;;;;10.69;100.00;95566.22;5087132;28;19933;-75
2023/05/12 06:47:29;;;;;;;;;;;;;;;10.69;100.00;95563.63;5080526;28;20383;-75
2023/05/12 06:49:55;;;;;;;;;;;;;;;10.93;100.00;95565.50;5090327;28;20317;-75
2023/05/12 06:52:23;;;;;;;;;;;;;;;11.08;100.00;95564.47;5088457;28;20353;-75
2023/05/12 06:54:49;;;;;;;;;;;;;;;11.08;100.00;95567.03;5087436;28;20463;-75
2023/05/12 06:57:15;;;;;;;;;;;;;;;11.02;100.00;95565.72;5085298;28;19925;-75
2023/05/12 06:59:41;;;;;;;;;;;;;;;11.28;100.00;95566.53;5086164;28;19924;-75
2023/05/12 07:02:08;;;;;;;;;;;;;;;11.28;100.00;95571.72;5078159;28;19932;-76
2023/05/12 07:04:34;;;;;;;;;;;;;;;11.27;100.00;95570.06;5088579;28;20044;-77
2023/05/12 07:07:01;;;;;;;;;;;;;;;11.16;100.00;95572.56;5089317;28;20447;-76
2023/05/12 07:09:28;;;;;;;;;;;;;;;11.16;100.00;95569.97;5089220;28;20329;-76
2023/05/12 07:11:54;;;;;;;;;;;;;;;11.12;100.00;95565.91;5085697;28;19924;-76
2023/05/12 07:14:21;;;;;;;;;;;;;;;11.45;100.00;95567.13;5084745;28;19924;-75
2023/05/12 07:16:47;;;;;;;;;;;;;;;11.44;100.00;95570.66;5087282;28;19924;-77
2023/05/12 07:19:13;;;;;;;;;;;;;;;11.56;100.00;95565.44;5083826;28;19928;-75
2023/05/12 07:21:39;;;;;;;;;;;;;;;11.53;100.00;95559.63;5083418;28;19924;-75
2023/05/12 07:24:06;;;;;;;;;;;;;;;11.74;100.00;95570.28;5082725;28;19928;-75
2023/05/12 07:26:33;;;;;;;;;;;;;;;11.65;100.00;95566.56;5087227;28;19985;-75
2023/05/12 07:29:01;;;;;;;;;;;;;;;11.99;100.00;95559.00;5077790;28;19925;-75
2023/05/12 07:31:27;;;;;;;;;;;;;;;12.03;100.00;95563.03;5086830;28;19942;-75
2023/05/12 07:33:54;;;;;;;;;;;;;;;12.15;100.00;95563.94;5080247;28;19924;-75
2023/05/12 07:36:20;;;;;;;;;;;;;;;12.08;100.00;95563.53;5080523;28;19928;-75
2023/05/12 07:38:46;;;;;;;;;;;;;;;11.86;100.00;95565.09;5081465;28;20299;-75
2023/05/12 07:41:13;;;;;;;;;;;;;;;12.01;100.00;95567.50;5083090;28;19956;-75
2023/05/12 07:43:40;;;;;;;;;;;;;;;12.17;100.00;95570.66;5081384;28;20264;-75
2023/05/12 07:46:06;;;;;;;;;;;;;;;11.99;100.00;95561.63;5080364;28;19946;-75
2023/05/12 07:48:38;;;;;;;;;;;;;;;12.11;100.00;95569.34;5079708;28;19932;-75
2023/05/12 07:51:04;;;;;;;;;;;;;;;12.19;100.00;95557.56;5065517;28;19932;-75
2023/05/12 07:53:30;;;;;;;;;;;;;;;11.99;100.00;95559.00;5077270;28;19931;-76
2023/05/12 07:55:57;;;;;;;;;;;;;;;12.22;100.00;95555.56;5085053;28;19928;-75
2023/05/12 07:58:23;;;;;;;;;;;;;;;12.28;100.00;95559.50;5080333;28;19958;-75
2023/05/12 08:00:53;;;;;;;;;;;;;;;12.32;100.00;95558.34;5084522;28;19977;-75
2023/05/12 08:03:19;;;;;;;;;;;;;;;12.41;100.00;95562.84;5086477;28;20015;-75
2023/05/12 08:05:45;;;;;;;;;;;;;;;12.39;100.00;95563.94;5082382;28;20326;-75
2023/05/12 08:08:15;;;;;;;;;;;;;;;12.47;100.00;95561.59;5086567;28;19928;-75
2023/05/12 08:10:41;;;;;;;;;;;;;;;12.41;100.00;95562.84;5080585;28;19925;-75
2023/05/12 08:13:08;;;;;;;;;;;;;;;12.32;100.00;95560.94;5084987;28;19932;-75
2023/05/12 08:15:34;;;;;;;;;;;;;;;12.58;100.00;95564.22;5081575;28;20387;-75
2023/05/12 08:18:01;;;;;;;;;;;;;;;12.22;100.00;95552.97;5083767;28;20329;-75
2023/05/12 08:20:28;;;;;;;;;;;;;;;12.42;100.00;95561.06;5085235;28;19994;-75
2023/05/12 08:22:54;;;;;;;;;;;;;;;12.43;100.00;95566.19;5082258;28;19995;-75
2023/05/12 08:25:20;;;;;;;;;;;;;;;12.52;100.00;95568.09;5084865;28;19932;-75
2023/05/12 08:27:47;;;;;;;;;;;;;;;12.41;100.00;95559.44;5087730;28;20401;-75
2023/05/12 08:30:13;;;;;;;;;;;;;;;12.35;100.00;95563.31;5086027;28;20334;-75
2023/05/12 08:32:39;;;;;;;;;;;;;;;12.39;100.00;95567.34;5088188;28;19924;-75
2023/05/12 08:35:07;;;;;;;;;;;;;;;12.29;100.00;95568.94;5087496;28;19924;-75
2023/05/12 08:37:33;;;;;;;;;;;;;;;12.23;100.00;95575.41;5082795;28;19932;-75
2023/05/12 08:40:00;;;;;;;;;;;;;;;12.17;100.00;95572.44;5067486;28;20402;-75
2023/05/12 08:42:30;;;;;;;;;;;;;;;12.13;100.00;95568.41;5077339;28;19990;-76
2023/05/12 08:44:57;;;;;;;;;;;;;;;12.16;100.00;95575.97;5087691;28;19979;-76
2023/05/12 08:47:24;;;;;;;;;;;;;;;12.12;100.00;95572.75;5082432;28;19936;-76
2023/05/12 08:49:58;;;;;;;;;;;;;;;12.14;100.00;95575.25;5080211;28;19939;-76
2023/05/12 08:52:26;;;;;;;;;;;;;;;12.35;100.00;95576.31;5074424;28;20432;-76
2023/05/12 08:54:52;;;;;;;;;;;;;;;12.39;100.00;95575.13;5082147;28;19932;-76
2023/05/12 08:57:20;;;;;;;;;;;;;;;12.38;100.00;95572.63;5066407;28;20011;-76
2023/05/12 08:59:46;;;;;;;;;;;;;;;12.74;100.00;95580.31;5082434;28;19924;-76
2023/05/12 09:02:13;;;;;;;;;;;;;;;13.04;100.00;95576.38;5081218;28;19982;-77
2023/05/12 09:04:39;;;;;;;;;;;;;;;13.05;100.00;95578.00;5087808;28;19924;-77
2023/05/12 09:07:06;;;;;;;;;;;;;;;13.16;100.00;95574.59;5085811;28;19924;-77
2023/05/12 09:09:35;;;;;;;;;;;;;;;13.19;100.00;95571.78;5087988;28;20031;-76
2023/05/12 09:12:03;;;;;;;;;;;;;;;13.26;100.00;95573.00;5080522;28;19950;-76
2023/05/12 09:14:30;;;;;;;;;;;;;;;13.24;100.00;95577.50;5091488;28;19928;-76
2023/05/12 09:16:59;;;;;;;;;;;;;;;13.28;100.00;95577.16;5074230;28;19925;-76
2023/05/12 09:19:26;;;;;;;;;;;;;;;13.21;100.00;95567.28;5086636;28;19985;-76
2023/05/12 09:21:52;;;;;;;;;;;;;;;13.10;100.00;95575.09;5082861;28;19932;-77
2023/05/12 09:24:18;;;;;;;;;;;;;;;13.01;100.00;95576.59;5091065;28;20378;-77
2023/05/12 09:26:47;;;;;;;;;;;;;;;13.15;100.00;95573.78;5088275;28;20403;-76
2023/05/12 09:29:13;;;;;;;;;;;;;;;13.27;100.00;95575.50;5090390;28;20010;-76
2023/05/12 09:31:39;;;;;;;;;;;;;;;13.13;100.00;95578.28;5087840;28;19924;-77
2023/05/12 09:34:07;;;;;;;;;;;;;;;13.23;100.00;95573.19;5089163;28;19924;-77
2023/05/12 09:36:34;;;;;;;;;;;;;;;13.26;100.00;95581.63;5088050;28;19928;-76
2023/05/12 09:39:03;;;;;;;;;;;;;;;13.18;100.00;95578.75;5082513;28;19924;-76
2023/05/12 09:41:29;;;;;;;;;;;;;;;13.18;100.00;95572.72;5087175;28;20019;-77
2023/05/12 09:43:59;;;;;;;;;;;;;;;13.16;100.00;95569.41;5086832;28;19924;-77
2023/05/12 09:46:25;;;;;;;;;;;;;;;13.19;100.00;95571.78;5082779;28;19924;-77
2023/05/12 09:48:55;;;;;;;;;;;;;;;13.17;100.00;95577.09;5085631;28;20303;-77
2023/05/12 09:51:21;;;;;;;;;;;;;;;13.18;100.00;95581.34;5091604;28;19924;-77
2023/05/12 09:53:47;;;;;;;;;;;;;;;13.05;100.00;95580.59;5081101;28;19928;-77
2023/05/12 09:56:14;;;;;;;;;;;;;;;13.13;100.00;95580.06;5075697;28;20435;-77
2023/05/12 09:58:41;;;;;;;;;;;;;;;13.04;100.00;95576.38;5083761;28;20390;-76
2023/05/12 10:01:10;;;;;;;;;;;;;;;13.06;100.00;95577.09;5091518;28;19981;-78
2023/05/12 10:03:37;;;;;;;;;;;;;;;12.84;100.00;95578.69;5088927;28;19924;-77
2023/05/12 10:06:05;;;;;;;;;;;;;;;12.69;100.00;95576.41;5091389;28;19981;-77
2023/05/12 10:08:33;;;;;;;;;;;;;;;12.71;100.00;95575.34;5090905;28;19931;-77
2023/05/12 10:11:01;;;;;;;;;;;;;;;12.71;100.00;95582.31;5085731;28;19970;-78
2023/05/12 10:13:28;;;;;;;;;;;;;;;12.81;100.00;95580.69;5088196;28;19928;-77
2023/05/12 10:15:55;;;;;;;;;;;;;;;12.66;100.00;95582.66;5089503;28;20330;-78
2023/05/12 10:18:23;;;;;;;;;;;;;;;12.75;100.00;95581.97;5076342;28;20454;-78
2023/05/12 10:20:51;;;;;;;;;;;;;;;12.97;100.00;95582.97;5088800;28;19925;-78
2023/05/12 10:23:18;;;;;;;;;;;;;;;12.88;100.00;95586.28;5086120;28;19935;-76
2023/05/12 10:25:45;;;;;;;;;;;;;;;13.17;100.00;95577.09;5087459;28;19946;-76
2023/05/12 10:28:11;;;;;;;;;;;;;;;13.14;100.00;95585.13;5087615;28;20041;-75
2023/05/12 10:30:38;;;;;;;;;;;;;;;13.13;100.00;95578.28;5080298;28;19928;-77
2023/05/12 10:33:07;;;;;;;;;;;;;;;13.07;100.00;95576.97;5073678;28;19985;-77
2023/05/12 10:35:36;;;;;;;;;;;;;;;13.17;100.00;95586.69;5085718;28;19978;-76
2023/05/12 10:38:05;;;;;;;;;;;;;;;13.09;100.00;95579.47;5075534;28;20333;-77
2023/05/12 10:40:31;;;;;;;;;;;;;;;13.10;100.00;95580.28;5074495;28;19931;-77
2023/05/12 10:42:58;;;;;;;;;;;;;;;13.19;100.00;95575.19;5077628;28;19928;-76
2023/05/12 10:45:24;;;;;;;;;;;;;;;12.81;100.00;95581.53;5079012;28;20010;-77
2023/05/12 10:47:51;;;;;;;;;;;;;;;12.77;100.00;95577.50;5072870;28;20413;-77
2023/05/12 10:50:26;;;;;;;;;;;;;;;12.79;100.00;95578.22;5077261;28;19924;-77
2023/05/12 10:52:54;;;;;;;;;;;;;;;12.84;100.00;95573.50;5082227;28;19935;-77
2023/05/12 10:55:30;;;;;;;;;;;;;;;13.03;100.00;95577.31;5074018;28;20016;-77
2023/05/12 10:58:03;;;;;;;;;;;;;;;12.96;100.00;95582.13;5089402;28;19939;-77
2023/05/12 11:00:29;;;;;;;;;;;;;;;13.01;100.00;95587.00;5069807;28;19925;-77
2023/05/12 11:02:55;;;;;;;;;;;;;;;12.87;100.00;95582.84;5081386;28;19950;-77
2023/05/12 11:05:22;;;;;;;;;;;;;;;12.90;100.00;95580.00;5071509;28;19928;-76
2023/05/12 11:07:49;;;;;;;;;;;;;;;12.90;100.00;95584.38;5075248;28;19924;-77
2023/05/12 11:10:16;;;;;;;;;;;;;;;12.98;100.00;95582.88;5074320;28;19928;-77
2023/05/12 11:12:43;;;;;;;;;;;;;;;13.00;100.00;95586.16;5082939;28;19932;-76
2023/05/12 11:15:10;;;;;;;;;;;;;;;12.90;100.00;95590.38;5086493;28;19925;-76
2023/05/12 11:17:38;;;;;;;;;;;;;;;12.97;100.00;95589.00;5085848;28;19949;-76
2023/05/12 11:20:05;;;;;;;;;;;;;;;13.00;100.00;95591.38;5082299;28;19928;-76
2023/05/12 11:22:32;;;;;;;;;;;;;;;13.16;100.00;95585.00;5071871;28;19924;-76
2023/05/12 11:25:08;;;;;;;;;;;;;;;13.03;100.00;95591.13;5079551;28;19932;-76
2023/05/12 11:27:38;;;;;;;;;;;;;;;12.85;100.00;95595.13;5074912;28;19940;-77
2023/05/12 11:30:05;;;;;;;;;;;;;;;12.96;100.00;95583.91;5090303;28;19932;-76
2023/05/12 11:32:31;;;;;;;;;;;;;;;12.98;100.00;95588.06;5081139;28;19925;-76
2023/05/12 11:35:08;;;;;;;;;;;;;;;12.94;100.00;95597.03;5082312;28;19936;-76
2023/05/12 11:37:36;;;;;;;;;;;;;;;13.11;100.00;95592.34;5071821;28;19925;-77
2023/05/12 11:40:03;;;;;;;;;;;;;;;13.11;100.00;95590.56;5084676;28;19924;-76
2023/05/12 11:42:29;;;;;;;;;;;;;;;13.23;100.00;95589.66;5079222;28;19925;-77
2023/05/12 11:44:57;;;;;;;;;;;;;;;13.20;100.00;95594.22;5081741;28;20403;-77
2023/05/12 11:47:23;;;;;;;;;;;;;;;13.42;100.00;95594.31;5073265;28;19929;-77
2023/05/12 11:49:50;;;;;;;;;;;;;;;13.47;100.00;95599.97;5088523;28;19925;-77
2023/05/12 11:52:18;;;;;;;;;;;;;;;13.55;100.00;95588.97;5085861;28;19929;-76
2023/05/12 11:54:48;;;;;;;;;;;;;;;13.64;100.00;95597.81;5081795;28;20371;-77
2023/05/12 11:57:24;;;;;;;;;;;;;;;13.71;100.00;95596.41;5084585;28;19954;-76
2023/05/12 11:59:57;;;;;;;;;;;;;;;13.60;100.00;95606.81;5081833;28;19947;-78
2023/05/12 12:02:23;;;;;;;;;;;;;;;13.80;100.00;95599.13;5079220;28;20398;-76
2023/05/12 12:04:50;;;;;;;;;;;;;;;13.73;100.00;95599.72;5080243;28;20293;-78
2023/05/12 12:07:16;;;;;;;;;;;;;;;13.74;100.00;95607.41;5083595;28;19984;-77
2023/05/12 12:09:42;;;;;;;;;;;;;;;13.80;100.00;95606.94;5079586;28;19982;-76
2023/05/12 12:12:09;;;;;;;;;;;;;;;13.71;100.00;95593.78;5084258;28;20010;-77
2023/05/12 12:14:37;;;;;;;;;;;;;;;13.85;100.00;95597.94;5080018;28;19925;-76
2023/05/12 12:17:04;;;;;;;;;;;;;;;13.84;100.00;95598.88;5088815;28;19949;-76
2023/05/12 12:19:31;;;;;;;;;;;;;;;13.78;100.00;95602.78;5089273;28;19924;-77
2023/05/12 12:21:57;;;;;;;;;;;;;;;13.75;100.00;95603.03;5080218;28;19924;-77
2023/05/12 12:24:24;;;;;;;;;;;;;;;13.71;100.00;95607.63;5083753;28;19925;-78
2023/05/12 12:26:51;;;;;;;;;;;;;;;13.58;100.00;95612.16;5085783;28;19928;-77
2023/05/12 12:29:17;;;;;;;;;;;;;;;13.57;100.00;95615.69;5073947;28;19928;-76
2023/05/12 12:31:44;;;;;;;;;;;;;;;13.69;100.00;95614.75;5078342;28;19932;-78
2023/05/12 12:34:11;;;;;;;;;;;;;;;13.30;100.00;95605.63;5085565;28;19978;-78
2023/05/12 12:36:37;;;;;;;;;;;;;;;13.28;100.00;95610.94;5078719;28;20305;-77
2023/05/12 12:39:04;;;;;;;;;;;;;;;13.28;100.00;95616.16;5087680;28;20027;-78